sensor_id;sensor_type;location;lat;lon;timestamp;P1;durP1;ratioP1;P2;durP2;ratioP2
6392;SDS011;3229;42.674;23.282;2023-08-20T00:00:41;9.02;;;5.68;;
6392;SDS011;3229;42.674;23.282;2023-08-20T00:03:10;6.10;;;5.10;;
6392;SDS011;3229;42.674;23.282;2023-08-20T00:05:39;5.68;;;5.18;;
6392;SDS011;3229;42.674;23.282;2023-08-20T00:08:06;8.88;;;5.07;;
6392;SDS011;3229;42.674;23.282;2023-08-20T00:10:34;6.95;;;4.82;;
6392;SDS011;3229;42.674;23.282;2023-08-20T00:13:01;7.28;;;5.45;;
6392;SDS011;3229;42.674;23.282;2023-08-20T00:15:29;7.07;;;4.95;;
6392;SDS011;3229;42.674;23.282;2023-08-20T00:17:56;6.35;;;5.18;;
6392;SDS011;3229;42.674;23.282;2023-08-20T00:20:24;6.65;;;5.60;;
6392;SDS011;3229;42.674;23.282;2023-08-20T00:22:51;5.53;;;4.85;;
6392;SDS011;3229;42.674;23.282;2023-08-20T00:25:18;6.97;;;5.35;;
6392;SDS011;3229;42.674;23.282;2023-08-20T00:27:47;8.18;;;5.45;;
6392;SDS011;3229;42.674;23.282;2023-08-20T00:30:14;8.10;;;5.90;;
6392;SDS011;3229;42.674;23.282;2023-08-20T00:32:40;6.50;;;5.55;;
6392;SDS011;3229;42.674;23.282;2023-08-20T00:35:07;8.32;;;5.53;;
6392;SDS011;3229;42.674;23.282;2023-08-20T00:37:34;9.90;;;5.35;;
6392;SDS011;3229;42.674;23.282;2023-08-20T00:40:01;7.63;;;5.68;;
6392;SDS011;3229;42.674;23.282;2023-08-20T00:42:30;9.52;;;6.60;;
6392;SDS011;3229;42.674;23.282;2023-08-20T00:44:58;9.52;;;6.32;;
6392;SDS011;3229;42.674;23.282;2023-08-20T00:47:25;7.63;;;5.93;;
6392;SDS011;3229;42.674;23.282;2023-08-20T00:49:52;7.45;;;5.60;;
6392;SDS011;3229;42.674;23.282;2023-08-20T00:52:19;6.93;;;6.07;;
6392;SDS011;3229;42.674;23.282;2023-08-20T00:54:47;8.32;;;5.95;;
6392;SDS011;3229;42.674;23.282;2023-08-20T00:57:14;10.30;;;6.65;;
6392;SDS011;3229;42.674;23.282;2023-08-20T00:59:43;6.93;;;6.22;;
6392;SDS011;3229;42.674;23.282;2023-08-20T01:02:15;9.40;;;6.32;;
6392;SDS011;3229;42.674;23.282;2023-08-20T01:04:42;6.85;;;6.15;;
6392;SDS011;3229;42.674;23.282;2023-08-20T01:07:11;6.95;;;6.15;;
6392;SDS011;3229;42.674;23.282;2023-08-20T01:09:47;10.10;;;5.95;;
6392;SDS011;3229;42.674;23.282;2023-08-20T01:12:20;8.77;;;5.95;;
6392;SDS011;3229;42.674;23.282;2023-08-20T01:14:49;7.22;;;6.22;;
6392;SDS011;3229;42.674;23.282;2023-08-20T01:17:17;6.97;;;5.93;;
6392;SDS011;3229;42.674;23.282;2023-08-20T01:19:43;6.95;;;6.15;;
6392;SDS011;3229;42.674;23.282;2023-08-20T01:22:22;7.32;;;6.63;;
6392;SDS011;3229;42.674;23.282;2023-08-20T01:25:11;8.68;;;6.68;;
6392;SDS011;3229;42.674;23.282;2023-08-20T01:27:48;6.95;;;6.25;;
6392;SDS011;3229;42.674;23.282;2023-08-20T01:30:20;9.15;;;6.97;;
6392;SDS011;3229;42.674;23.282;2023-08-20T01:32:47;7.82;;;6.00;;
6392;SDS011;3229;42.674;23.282;2023-08-20T01:35:16;7.82;;;6.55;;
6392;SDS011;3229;42.674;23.282;2023-08-20T01:37:44;6.88;;;6.05;;
6392;SDS011;3229;42.674;23.282;2023-08-20T01:40:11;8.35;;;6.38;;
6392;SDS011;3229;42.674;23.282;2023-08-20T01:42:38;9.68;;;6.55;;
6392;SDS011;3229;42.674;23.282;2023-08-20T01:45:06;7.38;;;6.68;;
6392;SDS011;3229;42.674;23.282;2023-08-20T01:47:35;6.95;;;6.22;;
6392;SDS011;3229;42.674;23.282;2023-08-20T01:50:02;6.78;;;6.03;;
6392;SDS011;3229;42.674;23.282;2023-08-20T01:52:29;7.20;;;6.20;;
6392;SDS011;3229;42.674;23.282;2023-08-20T01:54:57;8.98;;;6.82;;
6392;SDS011;3229;42.674;23.282;2023-08-20T01:57:24;11.32;;;6.57;;
6392;SDS011;3229;42.674;23.282;2023-08-20T01:59:51;10.73;;;6.55;;
6392;SDS011;3229;42.674;23.282;2023-08-20T02:02:18;10.77;;;6.35;;
6392;SDS011;3229;42.674;23.282;2023-08-20T02:04:46;8.75;;;7.07;;
6392;SDS011;3229;42.674;23.282;2023-08-20T02:07:13;8.43;;;6.25;;
6392;SDS011;3229;42.674;23.282;2023-08-20T02:09:40;9.80;;;6.80;;
6392;SDS011;3229;42.674;23.282;2023-08-20T02:12:07;7.32;;;6.63;;
6392;SDS011;3229;42.674;23.282;2023-08-20T02:14:34;7.35;;;6.45;;
6392;SDS011;3229;42.674;23.282;2023-08-20T02:17:01;7.63;;;6.63;;
6392;SDS011;3229;42.674;23.282;2023-08-20T02:19:28;9.40;;;7.45;;
6392;SDS011;3229;42.674;23.282;2023-08-20T02:21:56;7.45;;;6.65;;
6392;SDS011;3229;42.674;23.282;2023-08-20T02:24:23;9.27;;;6.28;;
6392;SDS011;3229;42.674;23.282;2023-08-20T02:26:49;10.45;;;6.43;;
6392;SDS011;3229;42.674;23.282;2023-08-20T02:29:16;10.93;;;6.50;;
6392;SDS011;3229;42.674;23.282;2023-08-20T02:31:43;8.57;;;6.88;;
6392;SDS011;3229;42.674;23.282;2023-08-20T02:34:10;10.30;;;6.63;;
6392;SDS011;3229;42.674;23.282;2023-08-20T02:36:36;7.65;;;6.75;;
6392;SDS011;3229;42.674;23.282;2023-08-20T02:39:05;7.20;;;6.25;;
6392;SDS011;3229;42.674;23.282;2023-08-20T02:41:33;7.82;;;6.55;;
6392;SDS011;3229;42.674;23.282;2023-08-20T02:43:59;9.95;;;7.00;;
6392;SDS011;3229;42.674;23.282;2023-08-20T02:46:26;8.00;;;7.10;;
6392;SDS011;3229;42.674;23.282;2023-08-20T02:48:53;8.07;;;6.28;;
6392;SDS011;3229;42.674;23.282;2023-08-20T02:51:20;8.70;;;6.30;;
6392;SDS011;3229;42.674;23.282;2023-08-20T02:53:47;9.00;;;5.47;;
6392;SDS011;3229;42.674;23.282;2023-08-20T02:56:15;7.82;;;6.95;;
6392;SDS011;3229;42.674;23.282;2023-08-20T02:58:42;8.32;;;6.13;;
6392;SDS011;3229;42.674;23.282;2023-08-20T03:01:17;7.05;;;6.40;;
6392;SDS011;3229;42.674;23.282;2023-08-20T03:03:44;7.60;;;6.63;;
6392;SDS011;3229;42.674;23.282;2023-08-20T03:06:11;8.05;;;6.65;;
6392;SDS011;3229;42.674;23.282;2023-08-20T03:08:38;9.73;;;6.43;;
6392;SDS011;3229;42.674;23.282;2023-08-20T03:11:05;14.02;;;6.82;;
6392;SDS011;3229;42.674;23.282;2023-08-20T03:13:33;11.27;;;6.63;;
6392;SDS011;3229;42.674;23.282;2023-08-20T03:16:00;8.52;;;6.60;;
6392;SDS011;3229;42.674;23.282;2023-08-20T03:18:28;6.97;;;6.22;;
6392;SDS011;3229;42.674;23.282;2023-08-20T03:20:55;8.52;;;5.88;;
6392;SDS011;3229;42.674;23.282;2023-08-20T03:23:22;11.13;;;7.50;;
6392;SDS011;3229;42.674;23.282;2023-08-20T03:25:49;9.90;;;6.32;;
6392;SDS011;3229;42.674;23.282;2023-08-20T03:28:17;8.93;;;5.78;;
6392;SDS011;3229;42.674;23.282;2023-08-20T03:30:45;9.18;;;6.82;;
6392;SDS011;3229;42.674;23.282;2023-08-20T03:33:12;10.63;;;6.50;;
6392;SDS011;3229;42.674;23.282;2023-08-20T03:35:40;9.07;;;6.55;;
6392;SDS011;3229;42.674;23.282;2023-08-20T03:38:06;10.40;;;6.75;;
6392;SDS011;3229;42.674;23.282;2023-08-20T03:40:33;12.88;;;6.78;;
6392;SDS011;3229;42.674;23.282;2023-08-20T03:43:00;8.15;;;6.82;;
6392;SDS011;3229;42.674;23.282;2023-08-20T03:45:27;7.97;;;6.90;;
6392;SDS011;3229;42.674;23.282;2023-08-20T03:47:57;11.68;;;6.97;;
6392;SDS011;3229;42.674;23.282;2023-08-20T03:50:24;8.38;;;7.53;;
6392;SDS011;3229;42.674;23.282;2023-08-20T03:52:50;12.85;;;7.57;;
6392;SDS011;3229;42.674;23.282;2023-08-20T03:55:17;13.68;;;7.20;;
6392;SDS011;3229;42.674;23.282;2023-08-20T03:57:44;7.68;;;6.45;;
6392;SDS011;3229;42.674;23.282;2023-08-20T04:00:11;10.10;;;6.70;;
6392;SDS011;3229;42.674;23.282;2023-08-20T04:02:38;11.02;;;7.90;;
6392;SDS011;3229;42.674;23.282;2023-08-20T04:05:07;9.15;;;7.18;;
6392;SDS011;3229;42.674;23.282;2023-08-20T04:07:34;8.70;;;7.57;;
6392;SDS011;3229;42.674;23.282;2023-08-20T04:10:01;15.90;;;7.07;;
6392;SDS011;3229;42.674;23.282;2023-08-20T04:12:28;9.85;;;7.57;;
6392;SDS011;3229;42.674;23.282;2023-08-20T04:14:55;10.18;;;6.80;;
6392;SDS011;3229;42.674;23.282;2023-08-20T04:17:22;9.73;;;6.97;;
6392;SDS011;3229;42.674;23.282;2023-08-20T04:19:48;18.50;;;7.82;;
6392;SDS011;3229;42.674;23.282;2023-08-20T04:22:16;11.05;;;7.18;;
6392;SDS011;3229;42.674;23.282;2023-08-20T04:24:43;8.52;;;7.63;;
6392;SDS011;3229;42.674;23.282;2023-08-20T04:27:10;10.70;;;7.25;;
6392;SDS011;3229;42.674;23.282;2023-08-20T04:29:37;12.77;;;7.40;;
6392;SDS011;3229;42.674;23.282;2023-08-20T04:32:04;11.55;;;8.48;;
6392;SDS011;3229;42.674;23.282;2023-08-20T04:34:31;10.25;;;7.43;;
6392;SDS011;3229;42.674;23.282;2023-08-20T04:36:58;9.75;;;7.03;;
6392;SDS011;3229;42.674;23.282;2023-08-20T04:39:26;10.38;;;7.70;;
6392;SDS011;3229;42.674;23.282;2023-08-20T04:41:53;12.15;;;7.57;;
6392;SDS011;3229;42.674;23.282;2023-08-20T04:44:22;10.85;;;8.05;;
6392;SDS011;3229;42.674;23.282;2023-08-20T04:46:49;13.43;;;7.63;;
6392;SDS011;3229;42.674;23.282;2023-08-20T04:49:16;9.57;;;7.47;;
6392;SDS011;3229;42.674;23.282;2023-08-20T04:51:42;10.77;;;7.57;;
6392;SDS011;3229;42.674;23.282;2023-08-20T04:54:09;8.40;;;7.22;;
6392;SDS011;3229;42.674;23.282;2023-08-20T04:56:37;9.93;;;7.53;;
6392;SDS011;3229;42.674;23.282;2023-08-20T04:59:04;10.52;;;7.43;;
6392;SDS011;3229;42.674;23.282;2023-08-20T05:01:31;9.55;;;8.48;;
6392;SDS011;3229;42.674;23.282;2023-08-20T05:03:57;10.88;;;8.75;;
6392;SDS011;3229;42.674;23.282;2023-08-20T05:06:24;17.08;;;9.40;;
6392;SDS011;3229;42.674;23.282;2023-08-20T05:08:51;9.73;;;7.78;;
6392;SDS011;3229;42.674;23.282;2023-08-20T05:11:18;11.75;;;7.70;;
6392;SDS011;3229;42.674;23.282;2023-08-20T05:13:47;10.07;;;6.70;;
6392;SDS011;3229;42.674;23.282;2023-08-20T05:16:15;14.90;;;7.45;;
6392;SDS011;3229;42.674;23.282;2023-08-20T05:18:42;8.95;;;8.05;;
6392;SDS011;3229;42.674;23.282;2023-08-20T05:21:09;11.18;;;7.60;;
6392;SDS011;3229;42.674;23.282;2023-08-20T05:23:38;10.18;;;7.82;;
6392;SDS011;3229;42.674;23.282;2023-08-20T05:26:05;12.45;;;8.10;;
6392;SDS011;3229;42.674;23.282;2023-08-20T05:28:32;9.80;;;6.85;;
6392;SDS011;3229;42.674;23.282;2023-08-20T05:31:00;12.40;;;7.28;;
6392;SDS011;3229;42.674;23.282;2023-08-20T05:33:27;8.10;;;7.30;;
6392;SDS011;3229;42.674;23.282;2023-08-20T05:35:54;9.02;;;8.02;;
6392;SDS011;3229;42.674;23.282;2023-08-20T05:38:20;12.68;;;7.95;;
6392;SDS011;3229;42.674;23.282;2023-08-20T05:40:47;12.07;;;8.23;;
6392;SDS011;3229;42.674;23.282;2023-08-20T05:43:14;9.02;;;7.45;;
6392;SDS011;3229;42.674;23.282;2023-08-20T05:45:41;7.93;;;7.03;;
6392;SDS011;3229;42.674;23.282;2023-08-20T05:48:09;11.38;;;7.15;;
6392;SDS011;3229;42.674;23.282;2023-08-20T05:50:36;10.82;;;7.10;;
6392;SDS011;3229;42.674;23.282;2023-08-20T05:53:03;15.40;;;8.15;;
6392;SDS011;3229;42.674;23.282;2023-08-20T05:55:30;9.75;;;7.97;;
6392;SDS011;3229;42.674;23.282;2023-08-20T05:57:56;10.60;;;7.38;;
6392;SDS011;3229;42.674;23.282;2023-08-20T06:00:23;9.40;;;7.10;;
6392;SDS011;3229;42.674;23.282;2023-08-20T06:02:50;11.02;;;7.10;;
6392;SDS011;3229;42.674;23.282;2023-08-20T06:05:18;9.15;;;7.70;;
6392;SDS011;3229;42.674;23.282;2023-08-20T06:07:45;10.27;;;7.07;;
6392;SDS011;3229;42.674;23.282;2023-08-20T06:10:12;11.45;;;7.47;;
6392;SDS011;3229;42.674;23.282;2023-08-20T06:12:38;9.57;;;7.45;;
6392;SDS011;3229;42.674;23.282;2023-08-20T06:15:05;8.00;;;6.22;;
6392;SDS011;3229;42.674;23.282;2023-08-20T06:17:32;11.98;;;7.18;;
6392;SDS011;3229;42.674;23.282;2023-08-20T06:19:59;7.78;;;5.95;;
6392;SDS011;3229;42.674;23.282;2023-08-20T06:22:27;9.07;;;6.55;;
6392;SDS011;3229;42.674;23.282;2023-08-20T06:24:54;9.95;;;6.35;;
6392;SDS011;3229;42.674;23.282;2023-08-20T06:27:21;8.27;;;6.93;;
6392;SDS011;3229;42.674;23.282;2023-08-20T06:29:48;8.38;;;6.63;;
6392;SDS011;3229;42.674;23.282;2023-08-20T06:32:14;8.73;;;5.85;;
6392;SDS011;3229;42.674;23.282;2023-08-20T06:34:41;14.20;;;5.85;;
6392;SDS011;3229;42.674;23.282;2023-08-20T06:37:08;11.90;;;6.63;;
6392;SDS011;3229;42.674;23.282;2023-08-20T06:39:36;7.80;;;5.97;;
6392;SDS011;3229;42.674;23.282;2023-08-20T06:42:03;7.15;;;6.22;;
6392;SDS011;3229;42.674;23.282;2023-08-20T06:44:30;7.25;;;5.65;;
6392;SDS011;3229;42.674;23.282;2023-08-20T06:46:56;7.22;;;5.93;;
6392;SDS011;3229;42.674;23.282;2023-08-20T06:49:23;7.32;;;5.97;;
6392;SDS011;3229;42.674;23.282;2023-08-20T06:51:50;6.95;;;5.72;;
6392;SDS011;3229;42.674;23.282;2023-08-20T06:54:17;9.02;;;5.85;;
6392;SDS011;3229;42.674;23.282;2023-08-20T06:56:45;7.00;;;6.13;;
6392;SDS011;3229;42.674;23.282;2023-08-20T06:59:11;8.77;;;5.50;;
6392;SDS011;3229;42.674;23.282;2023-08-20T07:01:38;7.63;;;5.38;;
6392;SDS011;3229;42.674;23.282;2023-08-20T07:04:05;11.25;;;5.90;;
6392;SDS011;3229;42.674;23.282;2023-08-20T07:06:32;7.75;;;5.50;;
6392;SDS011;3229;42.674;23.282;2023-08-20T07:08:59;10.30;;;5.85;;
6392;SDS011;3229;42.674;23.282;2023-08-20T07:11:26;10.20;;;5.80;;
6392;SDS011;3229;42.674;23.282;2023-08-20T07:13:54;7.50;;;5.20;;
6392;SDS011;3229;42.674;23.282;2023-08-20T07:16:21;5.53;;;4.53;;
6392;SDS011;3229;42.674;23.282;2023-08-20T07:18:47;6.32;;;4.47;;
6392;SDS011;3229;42.674;23.282;2023-08-20T07:21:14;8.95;;;4.95;;
6392;SDS011;3229;42.674;23.282;2023-08-20T07:23:41;5.78;;;5.18;;
6392;SDS011;3229;42.674;23.282;2023-08-20T07:26:08;9.10;;;5.18;;
6392;SDS011;3229;42.674;23.282;2023-08-20T07:28:37;7.00;;;4.75;;
6392;SDS011;3229;42.674;23.282;2023-08-20T07:31:22;4.95;;;4.55;;
6392;SDS011;3229;42.674;23.282;2023-08-20T07:33:49;7.93;;;4.45;;
6392;SDS011;3229;42.674;23.282;2023-08-20T07:36:17;4.97;;;4.40;;
6392;SDS011;3229;42.674;23.282;2023-08-20T07:38:47;9.27;;;5.25;;
6392;SDS011;3229;42.674;23.282;2023-08-20T07:41:14;8.90;;;5.35;;
6392;SDS011;3229;42.674;23.282;2023-08-20T07:43:41;6.78;;;5.20;;
6392;SDS011;3229;42.674;23.282;2023-08-20T07:46:08;8.52;;;5.03;;
6392;SDS011;3229;42.674;23.282;2023-08-20T07:48:36;9.20;;;5.38;;
6392;SDS011;3229;42.674;23.282;2023-08-20T07:51:03;6.90;;;4.78;;
6392;SDS011;3229;42.674;23.282;2023-08-20T07:53:30;4.97;;;4.57;;
6392;SDS011;3229;42.674;23.282;2023-08-20T07:55:57;5.10;;;4.63;;
6392;SDS011;3229;42.674;23.282;2023-08-20T07:58:25;5.10;;;4.60;;
6392;SDS011;3229;42.674;23.282;2023-08-20T08:00:52;6.85;;;4.47;;
6392;SDS011;3229;42.674;23.282;2023-08-20T08:03:18;6.65;;;4.70;;
6392;SDS011;3229;42.674;23.282;2023-08-20T08:05:50;6.65;;;4.75;;
6392;SDS011;3229;42.674;23.282;2023-08-20T08:08:17;7.57;;;4.70;;
6392;SDS011;3229;42.674;23.282;2023-08-20T08:10:44;5.78;;;4.80;;
6392;SDS011;3229;42.674;23.282;2023-08-20T08:13:11;6.45;;;4.63;;
6392;SDS011;3229;42.674;23.282;2023-08-20T08:15:38;6.85;;;4.85;;
6392;SDS011;3229;42.674;23.282;2023-08-20T08:18:06;4.47;;;4.15;;
6392;SDS011;3229;42.674;23.282;2023-08-20T08:20:33;8.43;;;5.10;;
6392;SDS011;3229;42.674;23.282;2023-08-20T08:23:02;5.13;;;4.40;;
6392;SDS011;3229;42.674;23.282;2023-08-20T08:25:29;4.60;;;4.13;;
6392;SDS011;3229;42.674;23.282;2023-08-20T08:27:56;7.53;;;4.30;;
6392;SDS011;3229;42.674;23.282;2023-08-20T08:30:23;8.98;;;4.88;;
6392;SDS011;3229;42.674;23.282;2023-08-20T08:32:49;6.80;;;5.28;;
6392;SDS011;3229;42.674;23.282;2023-08-20T08:35:16;8.23;;;5.00;;
6392;SDS011;3229;42.674;23.282;2023-08-20T08:37:43;6.95;;;4.85;;
6392;SDS011;3229;42.674;23.282;2023-08-20T08:40:12;6.60;;;4.85;;
6392;SDS011;3229;42.674;23.282;2023-08-20T08:42:39;5.72;;;4.53;;
6392;SDS011;3229;42.674;23.282;2023-08-20T08:45:07;4.90;;;3.97;;
6392;SDS011;3229;42.674;23.282;2023-08-20T08:47:35;7.68;;;4.65;;
6392;SDS011;3229;42.674;23.282;2023-08-20T08:50:03;10.63;;;4.90;;
6392;SDS011;3229;42.674;23.282;2023-08-20T08:52:31;4.40;;;4.00;;
6392;SDS011;3229;42.674;23.282;2023-08-20T08:54:58;4.93;;;3.90;;
6392;SDS011;3229;42.674;23.282;2023-08-20T08:57:26;4.63;;;3.35;;
6392;SDS011;3229;42.674;23.282;2023-08-20T08:59:53;3.92;;;3.50;;
6392;SDS011;3229;42.674;23.282;2023-08-20T09:02:20;7.03;;;4.05;;
6392;SDS011;3229;42.674;23.282;2023-08-20T09:04:48;5.40;;;4.20;;
6392;SDS011;3229;42.674;23.282;2023-08-20T09:07:15;4.28;;;3.33;;
6392;SDS011;3229;42.674;23.282;2023-08-20T09:09:42;4.13;;;3.72;;
6392;SDS011;3229;42.674;23.282;2023-08-20T09:12:13;8.30;;;3.83;;
6392;SDS011;3229;42.674;23.282;2023-08-20T09:14:45;3.85;;;3.55;;
6392;SDS011;3229;42.674;23.282;2023-08-20T09:17:13;4.20;;;3.80;;
6392;SDS011;3229;42.674;23.282;2023-08-20T09:19:41;4.78;;;3.63;;
6392;SDS011;3229;42.674;23.282;2023-08-20T09:22:10;4.00;;;3.70;;
6392;SDS011;3229;42.674;23.282;2023-08-20T09:24:39;5.35;;;4.40;;
6392;SDS011;3229;42.674;23.282;2023-08-20T09:27:08;8.23;;;4.22;;
6392;SDS011;3229;42.674;23.282;2023-08-20T09:29:43;5.07;;;4.05;;
6392;SDS011;3229;42.674;23.282;2023-08-20T09:32:15;6.97;;;3.92;;
6392;SDS011;3229;42.674;23.282;2023-08-20T09:34:42;5.20;;;3.58;;
6392;SDS011;3229;42.674;23.282;2023-08-20T09:37:09;4.10;;;3.75;;
6392;SDS011;3229;42.674;23.282;2023-08-20T09:39:36;3.80;;;3.40;;
6392;SDS011;3229;42.674;23.282;2023-08-20T09:42:04;3.60;;;3.30;;
6392;SDS011;3229;42.674;23.282;2023-08-20T09:44:32;3.78;;;3.45;;
6392;SDS011;3229;42.674;23.282;2023-08-20T09:47:03;4.05;;;3.65;;
6392;SDS011;3229;42.674;23.282;2023-08-20T09:49:35;3.83;;;3.50;;
6392;SDS011;3229;42.674;23.282;2023-08-20T09:52:03;3.67;;;3.38;;
6392;SDS011;3229;42.674;23.282;2023-08-20T09:54:37;9.05;;;3.92;;
6392;SDS011;3229;42.674;23.282;2023-08-20T09:57:14;3.70;;;3.40;;
6392;SDS011;3229;42.674;23.282;2023-08-20T09:59:47;4.05;;;3.75;;
6392;SDS011;3229;42.674;23.282;2023-08-20T10:02:16;7.00;;;3.78;;
6392;SDS011;3229;42.674;23.282;2023-08-20T10:04:43;3.95;;;3.45;;
6392;SDS011;3229;42.674;23.282;2023-08-20T10:07:10;3.80;;;3.50;;
6392;SDS011;3229;42.674;23.282;2023-08-20T10:09:38;8.45;;;4.15;;
6392;SDS011;3229;42.674;23.282;2023-08-20T10:12:06;5.88;;;3.90;;
6392;SDS011;3229;42.674;23.282;2023-08-20T10:14:33;3.97;;;3.58;;
6392;SDS011;3229;42.674;23.282;2023-08-20T10:17:07;4.00;;;3.00;;
6392;SDS011;3229;42.674;23.282;2023-08-20T10:19:36;4.65;;;3.50;;
6392;SDS011;3229;42.674;23.282;2023-08-20T10:22:03;5.70;;;3.40;;
6392;SDS011;3229;42.674;23.282;2023-08-20T10:24:39;4.65;;;3.53;;
6392;SDS011;3229;42.674;23.282;2023-08-20T10:27:08;3.35;;;3.05;;
6392;SDS011;3229;42.674;23.282;2023-08-20T10:29:39;3.53;;;3.22;;
6392;SDS011;3229;42.674;23.282;2023-08-20T10:32:08;5.63;;;3.45;;
6392;SDS011;3229;42.674;23.282;2023-08-20T10:34:37;3.97;;;3.47;;
6392;SDS011;3229;42.674;23.282;2023-08-20T10:37:08;4.82;;;3.30;;
6392;SDS011;3229;42.674;23.282;2023-08-20T10:39:36;3.17;;;2.95;;
6392;SDS011;3229;42.674;23.282;2023-08-20T10:42:11;5.15;;;3.20;;
6392;SDS011;3229;42.674;23.282;2023-08-20T10:44:56;9.27;;;3.30;;
6392;SDS011;3229;42.674;23.282;2023-08-20T10:47:24;3.40;;;3.10;;
6392;SDS011;3229;42.674;23.282;2023-08-20T10:49:53;3.50;;;3.20;;
6392;SDS011;3229;42.674;23.282;2023-08-20T10:52:20;4.70;;;3.25;;
6392;SDS011;3229;42.674;23.282;2023-08-20T10:54:49;4.53;;;3.10;;
6392;SDS011;3229;42.674;23.282;2023-08-20T10:57:17;5.13;;;3.72;;
6392;SDS011;3229;42.674;23.282;2023-08-20T10:59:55;3.15;;;2.95;;
6392;SDS011;3229;42.674;23.282;2023-08-20T11:02:24;6.00;;;3.60;;
6392;SDS011;3229;42.674;23.282;2023-08-20T11:04:53;3.60;;;2.80;;
6392;SDS011;3229;42.674;23.282;2023-08-20T11:07:20;4.80;;;3.20;;
6392;SDS011;3229;42.674;23.282;2023-08-20T11:09:48;8.98;;;3.30;;
6392;SDS011;3229;42.674;23.282;2023-08-20T11:12:19;3.00;;;2.70;;
6392;SDS011;3229;42.674;23.282;2023-08-20T11:14:46;4.93;;;3.33;;
6392;SDS011;3229;42.674;23.282;2023-08-20T11:17:13;3.38;;;3.00;;
6392;SDS011;3229;42.674;23.282;2023-08-20T11:19:40;3.60;;;3.30;;
6392;SDS011;3229;42.674;23.282;2023-08-20T11:22:09;4.25;;;3.15;;
6392;SDS011;3229;42.674;23.282;2023-08-20T11:24:35;3.78;;;2.67;;
6392;SDS011;3229;42.674;23.282;2023-08-20T11:27:04;3.63;;;3.28;;
6392;SDS011;3229;42.674;23.282;2023-08-20T11:29:31;3.92;;;3.25;;
6392;SDS011;3229;42.674;23.282;2023-08-20T11:31:57;4.90;;;3.42;;
6392;SDS011;3229;42.674;23.282;2023-08-20T11:34:28;4.43;;;3.22;;
6392;SDS011;3229;42.674;23.282;2023-08-20T11:36:55;3.45;;;3.10;;
6392;SDS011;3229;42.674;23.282;2023-08-20T11:39:24;3.45;;;2.92;;
6392;SDS011;3229;42.674;23.282;2023-08-20T11:41:51;3.30;;;3.00;;
6392;SDS011;3229;42.674;23.282;2023-08-20T11:44:21;3.58;;;3.20;;
6392;SDS011;3229;42.674;23.282;2023-08-20T11:46:48;5.15;;;2.90;;
6392;SDS011;3229;42.674;23.282;2023-08-20T11:49:15;4.20;;;3.17;;
6392;SDS011;3229;42.674;23.282;2023-08-20T11:51:42;4.45;;;3.22;;
6392;SDS011;3229;42.674;23.282;2023-08-20T11:54:12;4.05;;;3.50;;
6392;SDS011;3229;42.674;23.282;2023-08-20T11:56:44;5.18;;;3.25;;
6392;SDS011;3229;42.674;23.282;2023-08-20T11:59:12;4.13;;;3.28;;
6392;SDS011;3229;42.674;23.282;2023-08-20T12:01:39;4.45;;;3.08;;
6392;SDS011;3229;42.674;23.282;2023-08-20T12:04:06;3.33;;;3.00;;
6392;SDS011;3229;42.674;23.282;2023-08-20T12:06:34;3.85;;;3.47;;
6392;SDS011;3229;42.674;23.282;2023-08-20T12:09:02;3.95;;;3.60;;
6392;SDS011;3229;42.674;23.282;2023-08-20T12:11:49;3.88;;;3.45;;
6392;SDS011;3229;42.674;23.282;2023-08-20T12:14:16;4.47;;;3.67;;
6392;SDS011;3229;42.674;23.282;2023-08-20T12:16:43;6.60;;;3.20;;
6392;SDS011;3229;42.674;23.282;2023-08-20T12:19:10;3.28;;;2.97;;
6392;SDS011;3229;42.674;23.282;2023-08-20T12:21:37;4.45;;;3.53;;
6392;SDS011;3229;42.674;23.282;2023-08-20T12:24:04;5.13;;;3.00;;
6392;SDS011;3229;42.674;23.282;2023-08-20T12:26:32;3.65;;;3.33;;
6392;SDS011;3229;42.674;23.282;2023-08-20T12:29:00;5.63;;;3.65;;
6392;SDS011;3229;42.674;23.282;2023-08-20T12:31:27;3.70;;;3.38;;
6392;SDS011;3229;42.674;23.282;2023-08-20T12:33:54;4.22;;;3.53;;
6392;SDS011;3229;42.674;23.282;2023-08-20T12:36:21;4.50;;;3.30;;
6392;SDS011;3229;42.674;23.282;2023-08-20T12:38:47;3.83;;;3.22;;
6392;SDS011;3229;42.674;23.282;2023-08-20T12:41:14;6.10;;;3.20;;
6392;SDS011;3229;42.674;23.282;2023-08-20T12:43:41;4.35;;;3.25;;
6392;SDS011;3229;42.674;23.282;2023-08-20T12:46:09;3.22;;;2.95;;
6392;SDS011;3229;42.674;23.282;2023-08-20T12:48:37;6.22;;;3.42;;
6392;SDS011;3229;42.674;23.282;2023-08-20T12:51:04;3.90;;;3.22;;
6392;SDS011;3229;42.674;23.282;2023-08-20T12:53:31;3.85;;;3.20;;
6392;SDS011;3229;42.674;23.282;2023-08-20T12:55:58;5.07;;;3.53;;
6392;SDS011;3229;42.674;23.282;2023-08-20T12:58:25;4.88;;;3.40;;
6392;SDS011;3229;42.674;23.282;2023-08-20T13:00:52;4.05;;;3.33;;
6392;SDS011;3229;42.674;23.282;2023-08-20T13:03:20;3.90;;;3.53;;
6392;SDS011;3229;42.674;23.282;2023-08-20T13:05:48;5.15;;;3.55;;
6392;SDS011;3229;42.674;23.282;2023-08-20T13:08:15;5.25;;;3.72;;
6392;SDS011;3229;42.674;23.282;2023-08-20T13:10:43;3.58;;;3.28;;
6392;SDS011;3229;42.674;23.282;2023-08-20T13:13:16;3.80;;;3.50;;
6392;SDS011;3229;42.674;23.282;2023-08-20T13:15:46;5.93;;;3.22;;
6392;SDS011;3229;42.674;23.282;2023-08-20T13:18:14;4.55;;;3.13;;
6392;SDS011;3229;42.674;23.282;2023-08-20T13:20:42;4.85;;;3.85;;
6392;SDS011;3229;42.674;23.282;2023-08-20T13:23:09;6.72;;;3.35;;
6392;SDS011;3229;42.674;23.282;2023-08-20T13:25:36;5.50;;;3.10;;
6392;SDS011;3229;42.674;23.282;2023-08-20T13:28:03;5.28;;;3.38;;
6392;SDS011;3229;42.674;23.282;2023-08-20T13:30:30;8.45;;;3.47;;
6392;SDS011;3229;42.674;23.282;2023-08-20T13:32:58;4.18;;;3.67;;
6392;SDS011;3229;42.674;23.282;2023-08-20T13:35:25;4.07;;;3.50;;
6392;SDS011;3229;42.674;23.282;2023-08-20T13:37:54;3.42;;;3.13;;
6392;SDS011;3229;42.674;23.282;2023-08-20T13:40:20;4.25;;;3.45;;
6392;SDS011;3229;42.674;23.282;2023-08-20T13:42:47;4.40;;;3.05;;
6392;SDS011;3229;42.674;23.282;2023-08-20T13:45:14;3.90;;;3.05;;
6392;SDS011;3229;42.674;23.282;2023-08-20T13:47:41;5.65;;;3.83;;
6392;SDS011;3229;42.674;23.282;2023-08-20T13:50:09;3.42;;;3.13;;
6392;SDS011;3229;42.674;23.282;2023-08-20T13:52:36;5.07;;;3.63;;
6392;SDS011;3229;42.674;23.282;2023-08-20T13:55:05;5.70;;;3.40;;
6392;SDS011;3229;42.674;23.282;2023-08-20T13:57:33;3.80;;;3.50;;
6392;SDS011;3229;42.674;23.282;2023-08-20T13:59:59;4.93;;;3.88;;
6392;SDS011;3229;42.674;23.282;2023-08-20T14:02:26;3.63;;;3.13;;
6392;SDS011;3229;42.674;23.282;2023-08-20T14:04:53;3.15;;;2.85;;
6392;SDS011;3229;42.674;23.282;2023-08-20T14:07:20;3.72;;;2.97;;
6392;SDS011;3229;42.674;23.282;2023-08-20T14:09:47;3.47;;;3.10;;
6392;SDS011;3229;42.674;23.282;2023-08-20T14:12:15;3.70;;;3.05;;
6392;SDS011;3229;42.674;23.282;2023-08-20T14:14:42;4.85;;;3.28;;
6392;SDS011;3229;42.674;23.282;2023-08-20T14:17:08;3.20;;;3.00;;
6392;SDS011;3229;42.674;23.282;2023-08-20T14:19:35;4.43;;;3.25;;
6392;SDS011;3229;42.674;23.282;2023-08-20T14:22:02;4.40;;;3.15;;
6392;SDS011;3229;42.674;23.282;2023-08-20T14:24:29;4.28;;;2.97;;
6392;SDS011;3229;42.674;23.282;2023-08-20T14:26:55;3.60;;;3.20;;
6392;SDS011;3229;42.674;23.282;2023-08-20T14:29:24;3.20;;;2.95;;
6392;SDS011;3229;42.674;23.282;2023-08-20T14:31:50;6.20;;;3.50;;
6392;SDS011;3229;42.674;23.282;2023-08-20T14:34:17;3.60;;;3.30;;
6392;SDS011;3229;42.674;23.282;2023-08-20T14:36:44;4.15;;;3.85;;
6392;SDS011;3229;42.674;23.282;2023-08-20T14:39:11;3.30;;;3.10;;
6392;SDS011;3229;42.674;23.282;2023-08-20T14:41:38;4.03;;;3.22;;
6392;SDS011;3229;42.674;23.282;2023-08-20T14:44:05;4.63;;;3.17;;
6392;SDS011;3229;42.674;23.282;2023-08-20T14:46:33;3.75;;;3.30;;
6392;SDS011;3229;42.674;23.282;2023-08-20T14:49:00;4.75;;;3.50;;
6392;SDS011;3229;42.674;23.282;2023-08-20T14:51:26;5.90;;;3.42;;
6392;SDS011;3229;42.674;23.282;2023-08-20T14:53:53;4.88;;;3.10;;
6392;SDS011;3229;42.674;23.282;2023-08-20T14:56:20;3.63;;;3.38;;
6392;SDS011;3229;42.674;23.282;2023-08-20T14:58:47;5.07;;;3.53;;
6392;SDS011;3229;42.674;23.282;2023-08-20T15:01:13;3.92;;;3.60;;
6392;SDS011;3229;42.674;23.282;2023-08-20T15:03:43;3.70;;;3.15;;